createdAt,value
2022-11-23T00:00:43.210Z,71.70
2022-11-23T00:03:15.230Z,70.93
2022-11-23T00:05:42.461Z,71.59
2022-11-23T00:08:09.533Z,71.77
2022-11-23T00:10:36.687Z,71.68
2022-11-23T00:13:03.806Z,71.84
2022-11-23T00:15:30.977Z,71.55
2022-11-23T00:17:58.613Z,71.88
2022-11-23T00:20:25.961Z,71.95
2022-11-23T00:22:53.010Z,71.78
2022-11-23T00:25:20.079Z,71.75
2022-11-23T00:27:47.253Z,71.71
2022-11-23T00:30:14.901Z,71.67
2022-11-23T00:32:42.147Z,71.51
2022-11-23T00:35:09.273Z,71.53
2022-11-23T00:37:36.422Z,71.57
2022-11-23T00:40:03.798Z,71.22
2022-11-23T00:42:36.560Z,71.69
2022-11-23T00:45:05.320Z,71.47
2022-11-23T00:47:32.418Z,71.64
2022-11-23T00:49:59.675Z,71.75
2022-11-23T00:52:26.845Z,71.49
2022-11-23T00:54:53.963Z,71.62
2022-11-23T00:57:21.109Z,71.77
2022-11-23T00:59:48.534Z,71.61
2022-11-23T01:02:16.390Z,71.77
2022-11-23T01:04:43.557Z,71.67
2022-11-23T01:07:10.692Z,71.80
2022-11-23T01:09:38.017Z,71.88
2022-11-23T01:12:06.704Z,71.77
2022-11-23T01:14:33.825Z,72.12
2022-11-23T01:17:04.297Z,72.08
2022-11-23T01:19:34.982Z,72.08
2022-11-23T01:22:02.185Z,72.16
2022-11-23T01:24:29.354Z,72.34
2022-11-23T01:26:56.546Z,72.35
2022-11-23T01:29:24.332Z,72.33
2022-11-23T01:31:51.518Z,72.32
2022-11-23T01:34:18.829Z,72.30
2022-11-23T01:36:46.108Z,72.24
2022-11-23T01:39:13.437Z,72.23
2022-11-23T01:41:43.511Z,72.06
2022-11-23T01:44:28.617Z,71.04
2022-11-23T01:46:59.256Z,71.99
2022-11-23T01:49:30.125Z,72.01
2022-11-23T01:52:03.280Z,71.58
2022-11-23T01:54:41.246Z,71.22
2022-11-23T01:57:16.139Z,71.67
2022-11-23T01:59:45.703Z,72.24
2022-11-23T02:02:13.770Z,72.11
2022-11-23T02:04:45.875Z,71.87
2022-11-23T02:07:17.058Z,71.99
2022-11-23T02:09:45.845Z,72.24
2022-11-23T02:12:14.355Z,72.19
2022-11-23T02:14:44.768Z,72.15
2022-11-23T02:17:12.109Z,70.93
2022-11-23T02:19:58.933Z,71.30
2022-11-23T02:22:49.425Z,71.27
2022-11-23T02:25:44.825Z,71.40
2022-11-23T02:28:16.247Z,72.26
2022-11-23T02:30:47.100Z,72.23
2022-11-23T02:33:14.264Z,72.36
2022-11-23T02:35:56.915Z,71.40
2022-11-23T02:38:26.957Z,72.13
2022-11-23T02:40:57.002Z,72.46
2022-11-23T02:43:24.874Z,72.45
2022-11-23T02:46:03.546Z,71.19
2022-11-23T02:48:30.797Z,72.27
2022-11-23T02:50:57.912Z,72.10
2022-11-23T02:53:25.258Z,72.02
2022-11-23T02:55:54.569Z,71.85
2022-11-23T02:58:21.637Z,71.78
2022-11-23T03:00:48.999Z,71.75
2022-11-23T03:03:20.021Z,71.60
2022-11-23T03:05:47.076Z,71.48
2022-11-23T03:08:14.380Z,71.37
2022-11-23T03:10:41.490Z,71.32
2022-11-23T03:13:09.154Z,71.33
2022-11-23T03:15:38.566Z,71.24
2022-11-23T03:18:06.548Z,71.41
2022-11-23T03:20:34.217Z,71.50
2022-11-23T03:23:01.395Z,71.46
2022-11-23T03:25:28.674Z,71.68
2022-11-23T03:27:57.203Z,71.82
2022-11-23T03:30:24.350Z,71.97
2022-11-23T03:32:51.794Z,71.99
2022-11-23T03:35:20.281Z,72.05
2022-11-23T03:38:07.829Z,71.99
2022-11-23T03:40:34.952Z,71.93
2022-11-23T03:43:12.254Z,71.99
2022-11-23T03:45:39.862Z,71.91
2022-11-23T03:48:07.364Z,71.83
2022-11-23T03:50:34.620Z,71.89
2022-11-23T03:53:01.672Z,71.87
2022-11-23T03:55:29.552Z,71.68
2022-11-23T03:57:56.734Z,71.55
2022-11-23T04:00:23.856Z,71.50
2022-11-23T04:02:51.065Z,71.50
2022-11-23T04:05:36.829Z,71.30
2022-11-23T04:08:27.892Z,71.27
2022-11-23T04:10:57.541Z,71.16
2022-11-23T04:13:34.473Z,71.33
2022-11-23T04:16:01.627Z,71.38
2022-11-23T04:18:28.724Z,71.43
2022-11-23T04:20:55.957Z,71.28
2022-11-23T04:23:23.001Z,71.34
2022-11-23T04:25:50.887Z,71.38
2022-11-23T04:28:19.426Z,71.33
2022-11-23T04:30:48.861Z,71.28
2022-11-23T04:33:16.348Z,71.23
2022-11-23T04:35:47.126Z,71.43
2022-11-23T04:38:15.220Z,71.55
2022-11-23T04:40:43.305Z,71.43
2022-11-23T04:43:11.133Z,70.33
2022-11-23T04:45:40.578Z,71.32
2022-11-23T04:48:13.488Z,71.36
2022-11-23T04:50:46.471Z,71.31
2022-11-23T04:53:17.474Z,71.49
2022-11-23T04:55:47.242Z,71.49
2022-11-23T04:58:15.902Z,71.42
2022-11-23T05:00:43.038Z,71.49
2022-11-23T05:03:12.132Z,71.48
2022-11-23T05:05:41.449Z,71.48
2022-11-23T05:08:09.511Z,71.43
2022-11-23T05:10:52.057Z,71.44
2022-11-23T05:13:19.699Z,71.42
2022-11-23T05:15:48.465Z,71.41
2022-11-23T05:18:20.386Z,71.24
2022-11-23T05:20:49.633Z,71.28
2022-11-23T05:23:17.156Z,71.12
2022-11-23T05:25:45.865Z,71.05
2022-11-23T05:28:38.895Z,71.01
2022-11-23T05:31:05.846Z,71.00
2022-11-23T05:33:33.255Z,70.88
2022-11-23T05:36:01.497Z,70.75
2022-11-23T05:38:36.564Z,70.74
2022-11-23T05:41:09.030Z,70.68
2022-11-23T05:43:39.334Z,70.74
2022-11-23T05:46:08.563Z,70.69
2022-11-23T05:48:37.173Z,70.72
2022-11-23T05:51:09.340Z,70.69
2022-11-23T05:53:40.964Z,70.93
2022-11-23T05:56:15.443Z,70.92
2022-11-23T05:58:56.842Z,70.94
2022-11-23T06:01:24.116Z,69.92
2022-11-23T06:03:53.285Z,71.04
2022-11-23T06:06:20.468Z,71.14
2022-11-23T06:08:49.227Z,71.37
2022-11-23T06:11:17.698Z,71.23
2022-11-23T06:13:47.703Z,71.26
2022-11-23T06:16:15.942Z,71.32
2022-11-23T06:18:55.225Z,71.44
2022-11-23T06:21:22.290Z,71.21
2022-11-23T06:23:49.595Z,71.24
2022-11-23T06:26:17.557Z,71.31
2022-11-23T06:28:44.727Z,71.32
2022-11-23T06:31:11.804Z,71.34
2022-11-23T06:33:38.926Z,71.37
2022-11-23T06:36:06.355Z,71.71
2022-11-23T06:38:41.661Z,71.57
2022-11-23T06:41:15.692Z,71.70
2022-11-23T06:43:42.850Z,71.54
2022-11-23T06:46:11.560Z,71.65
2022-11-23T06:48:45.695Z,71.35
2022-11-23T06:51:15.015Z,71.70
2022-11-23T06:53:43.439Z,72.00
2022-11-23T06:56:13.109Z,72.04
2022-11-23T06:58:40.944Z,72.09
2022-11-23T07:01:12.163Z,72.26
2022-11-23T07:03:45.699Z,72.43
2022-11-23T07:06:21.701Z,72.29
2022-11-23T07:08:56.964Z,72.19
2022-11-23T07:11:38.704Z,72.58
2022-11-23T07:14:06.046Z,72.64
2022-11-23T07:16:35.324Z,72.81
2022-11-23T07:19:02.678Z,72.86
2022-11-23T07:21:29.808Z,72.61
2022-11-23T07:23:56.886Z,72.80
2022-11-23T07:26:24.169Z,72.84
2022-11-23T07:28:51.239Z,72.70
2022-11-23T07:31:18.352Z,72.54
2022-11-23T07:33:46.681Z,72.71
2022-11-23T07:36:14.577Z,72.91
2022-11-23T07:38:43.602Z,72.90
2022-11-23T07:41:14.070Z,72.85
2022-11-23T07:44:07.378Z,72.97
2022-11-23T07:46:34.541Z,73.16
2022-11-23T07:49:01.663Z,73.35
2022-11-23T07:51:29.749Z,73.21
2022-11-23T07:53:57.130Z,73.42
2022-11-23T07:56:24.430Z,73.32
2022-11-23T07:58:51.550Z,73.33
2022-11-23T08:01:19.947Z,73.45
2022-11-23T08:03:48.408Z,73.23
2022-11-23T08:06:16.721Z,73.38
2022-11-23T08:08:43.742Z,71.35
2022-11-23T08:11:11.369Z,73.31
2022-11-23T08:13:38.439Z,73.44
2022-11-23T08:16:05.847Z,73.38
2022-11-23T08:18:33.044Z,73.62
2022-11-23T08:21:00.722Z,73.28
2022-11-23T08:23:28.170Z,73.50
2022-11-23T08:25:55.390Z,73.94
2022-11-23T08:28:22.679Z,73.91
2022-11-23T08:30:50.018Z,73.73
2022-11-23T08:33:17.495Z,73.81
2022-11-23T08:35:44.680Z,74.10
2022-11-23T08:38:12.182Z,74.00
2022-11-23T08:40:39.861Z,74.12
2022-11-23T08:43:07.003Z,74.25
2022-11-23T08:45:34.104Z,74.40
2022-11-23T08:48:02.551Z,74.28
2022-11-23T08:50:30.111Z,74.05
2022-11-23T08:52:58.561Z,74.01
2022-11-23T08:55:27.476Z,73.94
2022-11-23T08:57:58.556Z,72.66
2022-11-23T09:00:26.222Z,74.21
2022-11-23T09:02:53.596Z,74.11
2022-11-23T09:05:20.722Z,73.79
2022-11-23T09:07:48.698Z,73.55
2022-11-23T09:10:18.756Z,73.22
2022-11-23T09:12:47.537Z,73.32
2022-11-23T09:15:15.086Z,73.41
2022-11-23T09:17:42.354Z,73.27
2022-11-23T09:20:10.240Z,73.07
2022-11-23T09:22:37.788Z,73.28
2022-11-23T09:25:05.612Z,73.41
2022-11-23T09:27:33.196Z,73.25
2022-11-23T09:30:00.436Z,73.43
2022-11-23T09:32:27.537Z,73.04
2022-11-23T09:34:54.662Z,72.81
2022-11-23T09:37:21.749Z,72.23
2022-11-23T09:39:48.825Z,72.88
2022-11-23T09:42:30.553Z,69.28
2022-11-23T09:45:19.132Z,67.00
2022-11-23T09:47:54.401Z,69.36
2022-11-23T09:50:50.282Z,69.29
2022-11-23T09:53:25.030Z,70.24
2022-11-23T09:55:55.960Z,71.35
2022-11-23T09:58:30.918Z,71.27
2022-11-23T10:01:04.839Z,69.77
2022-11-23T10:03:38.097Z,70.43
2022-11-23T10:06:10.921Z,70.54
2022-11-23T10:09:02.011Z,66.78
2022-11-23T10:11:50.909Z,69.64
2022-11-23T10:14:53.278Z,68.38
2022-11-23T10:17:58.613Z,68.33
2022-11-23T10:20:51.349Z,67.54
2022-11-23T10:23:36.112Z,67.72
2022-11-23T10:26:03.236Z,70.46
2022-11-23T10:28:32.268Z,69.61
2022-11-23T10:31:20.256Z,67.14
2022-11-23T10:34:13.519Z,67.42
2022-11-23T10:36:41.364Z,70.74
2022-11-23T10:39:21.351Z,68.40
2022-11-23T10:41:49.709Z,70.73
2022-11-23T10:44:30.411Z,69.22
2022-11-23T10:46:58.987Z,70.82
2022-11-23T10:49:27.433Z,70.66
2022-11-23T10:52:17.205Z,69.89
2022-11-23T10:54:47.318Z,69.89
2022-11-23T10:57:33.552Z,67.49
2022-11-23T11:00:02.613Z,68.70
2022-11-23T11:02:48.720Z,68.02
2022-11-23T11:06:11.010Z,69.86
2022-11-23T11:08:34.746Z,66.81
2022-11-23T11:11:11.768Z,65.66
2022-11-23T11:13:44.560Z,65.93
2022-11-23T11:16:34.658Z,66.21
2022-11-23T11:19:26.729Z,67.04
2022-11-23T11:21:54.195Z,69.92
2022-11-23T11:24:38.391Z,66.42
2022-11-23T11:27:13.288Z,68.48
2022-11-23T11:29:48.934Z,66.25
2022-11-23T11:32:37.549Z,66.60
2022-11-23T11:35:25.319Z,64.64
2022-11-23T11:37:57.077Z,67.83
2022-11-23T11:40:48.938Z,67.57
2022-11-23T11:43:39.591Z,66.39
2022-11-23T11:46:29.047Z,66.11
2022-11-23T11:49:18.207Z,63.91
2022-11-23T11:51:59.308Z,64.60
2022-11-23T11:54:44.364Z,65.48
2022-11-23T11:57:17.467Z,66.67
2022-11-23T11:59:48.010Z,68.78
2022-11-23T12:02:50.750Z,65.59
2022-11-23T12:05:25.192Z,67.36
2022-11-23T12:07:54.812Z,68.99
2022-11-23T12:10:27.984Z,67.32
2022-11-23T12:12:55.582Z,69.53
2022-11-23T12:15:48.805Z,67.76
2022-11-23T12:18:42.402Z,66.49
2022-11-23T12:21:39.781Z,65.19
2022-11-23T12:24:20.718Z,67.49
2022-11-23T12:26:56.799Z,66.12
2022-11-23T12:29:39.259Z,66.72
2022-11-23T12:32:15.272Z,64.82
2022-11-23T12:35:04.145Z,63.98
2022-11-23T12:37:49.519Z,65.60
2022-11-23T12:40:25.448Z,63.82
2022-11-23T12:43:01.634Z,65.31
2022-11-23T12:45:53.805Z,65.84
2022-11-23T12:48:35.925Z,68.04
2022-11-23T12:52:04.550Z,64.55
2022-11-23T12:54:47.842Z,63.91
2022-11-23T12:57:24.769Z,65.06
2022-11-23T13:00:00.644Z,65.30
2022-11-23T13:02:58.070Z,65.25
2022-11-23T13:05:55.122Z,64.66
2022-11-23T13:09:03.921Z,63.92
2022-11-23T13:11:53.660Z,64.73
2022-11-23T13:14:33.236Z,64.96
2022-11-23T13:17:41.553Z,62.78
2022-11-23T13:20:28.919Z,65.44
2022-11-23T13:22:58.312Z,66.04
2022-11-23T13:25:28.634Z,64.80
2022-11-23T13:27:59.075Z,65.21
2022-11-23T13:31:07.273Z,63.72
2022-11-23T13:33:30.402Z,65.91
2022-11-23T13:36:03.811Z,66.79
2022-11-23T13:38:40.137Z,65.13
2022-11-23T13:41:33.373Z,64.31
2022-11-23T13:44:19.001Z,63.84
2022-11-23T13:47:07.690Z,64.72
2022-11-23T13:49:43.586Z,65.28
2022-11-23T13:52:22.843Z,64.18
2022-11-23T13:55:13.052Z,65.91
2022-11-23T13:57:46.991Z,65.72
2022-11-23T14:00:44.149Z,65.85
2022-11-23T14:03:42.334Z,64.43
2022-11-23T14:06:34.623Z,64.80
2022-11-23T14:09:19.321Z,63.39
2022-11-23T14:12:05.252Z,64.39
2022-11-23T14:14:49.433Z,64.27
2022-11-23T14:17:48.547Z,65.55
2022-11-23T14:20:52.677Z,65.24
2022-11-23T14:23:43.326Z,65.36
2022-11-23T14:26:13.010Z,67.09
2022-11-23T14:29:01.359Z,65.43
2022-11-23T14:31:37.015Z,65.19
2022-11-23T14:34:32.547Z,65.80
2022-11-23T14:37:13.688Z,67.14
2022-11-23T14:40:08.730Z,65.12
2022-11-23T14:42:43.033Z,65.44
2022-11-23T14:45:15.148Z,65.18
2022-11-23T14:47:42.437Z,67.08
2022-11-23T14:50:29.146Z,64.82
2022-11-23T14:52:59.029Z,66.92
2022-11-23T14:55:28.849Z,66.46
2022-11-23T14:58:03.625Z,66.21
2022-11-23T15:00:41.022Z,65.27
2022-11-23T15:06:17.286Z,65.40
2022-11-23T15:08:54.203Z,65.82
2022-11-23T15:11:25.557Z,66.36
2022-11-23T15:13:54.679Z,66.68
2022-11-23T15:16:21.996Z,66.89
2022-11-23T15:18:49.439Z,66.74
2022-11-23T15:21:28.049Z,65.24
2022-11-23T15:23:57.214Z,66.46
2022-11-23T15:26:47.477Z,66.28
2022-11-23T15:29:29.393Z,65.35
2022-11-23T15:32:22.366Z,66.39
2022-11-23T15:34:43.924Z,66.42
2022-11-23T15:37:11.158Z,66.41
2022-11-23T15:39:38.761Z,66.23
2022-11-23T15:42:06.772Z,66.22
2022-11-23T15:44:38.402Z,66.20
2022-11-23T15:47:07.264Z,66.13
2022-11-23T15:49:38.710Z,65.95
2022-11-23T15:52:06.459Z,66.14
2022-11-23T15:54:38.584Z,65.99
2022-11-23T15:57:15.409Z,65.84
2022-11-23T16:00:00.614Z,65.93
2022-11-23T16:02:30.450Z,66.35
2022-11-23T16:05:13.746Z,65.86
2022-11-23T16:07:56.554Z,65.91
2022-11-23T16:10:34.066Z,66.13
2022-11-23T16:13:03.622Z,66.73
2022-11-23T16:15:40.317Z,66.83
2022-11-23T16:18:13.099Z,67.48
2022-11-23T16:20:47.941Z,67.76
2022-11-23T16:23:20.692Z,67.70
2022-11-23T16:25:56.884Z,67.37
2022-11-23T16:28:33.030Z,67.27
2022-11-23T16:31:00.894Z,67.83
2022-11-23T16:33:28.715Z,67.94
2022-11-23T16:35:56.241Z,67.86
2022-11-23T16:38:24.158Z,67.82
2022-11-23T16:40:51.214Z,67.68
2022-11-23T16:43:18.732Z,67.71
2022-11-23T16:45:49.077Z,67.71
2022-11-23T16:48:24.709Z,67.52
2022-11-23T16:50:53.337Z,67.39
2022-11-23T16:53:20.996Z,67.31
2022-11-23T16:55:55.778Z,66.77
2022-11-23T16:58:23.960Z,67.02
2022-11-23T17:00:51.017Z,67.01
2022-11-23T17:03:21.211Z,66.97
2022-11-23T17:05:48.594Z,67.04
2022-11-23T17:08:23.133Z,67.15
2022-11-23T17:10:51.434Z,67.10
2022-11-23T17:13:29.380Z,66.80
2022-11-23T17:15:56.637Z,67.20
2022-11-23T17:18:23.703Z,66.99
2022-11-23T17:20:50.811Z,67.38
2022-11-23T17:23:18.086Z,67.32
2022-11-23T17:25:45.154Z,67.63
2022-11-23T17:28:17.852Z,67.26
2022-11-23T17:30:44.961Z,67.52
2022-11-23T17:33:12.125Z,67.60
2022-11-23T17:35:40.048Z,67.50
2022-11-23T17:38:14.123Z,66.92
2022-11-23T17:40:41.222Z,67.40
2022-11-23T17:43:13.697Z,67.32
2022-11-23T17:45:41.427Z,67.40
2022-11-23T17:48:12.095Z,67.28
2022-11-23T17:50:39.481Z,67.46
2022-11-23T17:53:06.939Z,67.51
2022-11-23T17:55:34.143Z,67.33
2022-11-23T17:58:01.244Z,67.32
2022-11-23T18:00:29.662Z,67.45
2022-11-23T18:02:56.748Z,67.42
2022-11-23T18:05:23.870Z,67.32
2022-11-23T18:07:51.117Z,67.33
2022-11-23T18:13:11.366Z,67.28
2022-11-23T18:15:38.535Z,67.54
2022-11-23T18:18:05.666Z,67.53
2022-11-23T18:20:32.808Z,67.48
2022-11-23T18:23:00.047Z,67.42
2022-11-23T18:25:27.074Z,67.56
2022-11-23T18:27:54.149Z,67.64
2022-11-23T18:30:21.420Z,67.37
2022-11-23T18:32:48.557Z,67.48
2022-11-23T18:35:15.776Z,67.38
2022-11-23T18:37:42.795Z,67.61
2022-11-23T18:40:10.296Z,67.55
2022-11-23T18:42:37.348Z,67.78
2022-11-23T18:45:05.039Z,67.82
2022-11-23T18:47:32.099Z,67.79
2022-11-23T18:50:03.435Z,67.60
2022-11-23T18:52:33.424Z,67.34
2022-11-23T18:55:00.545Z,67.28
2022-11-23T18:57:27.610Z,67.38
2022-11-23T18:59:58.845Z,67.34
2022-11-23T19:02:26.672Z,67.33
2022-11-23T19:04:53.929Z,67.41
2022-11-23T19:07:26.583Z,67.94
2022-11-23T19:09:54.356Z,68.30
2022-11-23T19:12:21.427Z,68.61
2022-11-23T19:14:48.606Z,69.08
2022-11-23T19:17:16.586Z,69.63
2022-11-23T19:19:43.668Z,70.39
2022-11-23T19:22:10.749Z,70.85
2022-11-23T19:24:37.885Z,71.58
2022-11-23T19:27:04.943Z,71.77
2022-11-23T19:29:32.044Z,71.93
2022-11-23T19:31:59.173Z,72.01
2022-11-23T19:34:26.232Z,71.97
2022-11-23T19:36:53.396Z,72.25
2022-11-23T19:39:20.388Z,72.18
2022-11-23T19:41:47.454Z,72.25
2022-11-23T19:44:14.781Z,72.25
2022-11-23T19:46:41.857Z,72.21
2022-11-23T19:49:09.061Z,72.38
2022-11-23T19:51:36.211Z,72.53
2022-11-23T19:54:03.512Z,72.31
2022-11-23T19:56:30.608Z,72.42
2022-11-23T19:58:59.765Z,72.35
2022-11-23T20:01:29.601Z,71.64
2022-11-23T20:04:08.324Z,71.59
2022-11-23T20:06:38.255Z,72.10
2022-11-23T20:09:25.694Z,69.52
2022-11-23T20:11:52.936Z,72.18
2022-11-23T20:14:20.011Z,72.19
2022-11-23T20:16:47.243Z,72.31
2022-11-23T20:19:14.424Z,72.60
2022-11-23T20:21:41.572Z,72.44
2022-11-23T20:24:12.259Z,71.83
2022-11-23T20:26:40.594Z,72.41
2022-11-23T20:29:08.309Z,72.20
2022-11-23T20:31:36.647Z,72.09
2022-11-23T20:34:07.082Z,72.01
2022-11-23T20:36:36.781Z,71.78
2022-11-23T20:39:06.455Z,71.77
2022-11-23T20:41:35.795Z,71.85
2022-11-23T20:44:11.487Z,71.91
2022-11-23T20:47:00.712Z,72.14
2022-11-23T20:49:25.854Z,72.12
2022-11-23T20:51:52.952Z,71.99
2022-11-23T20:54:20.002Z,72.10
2022-11-23T20:56:47.084Z,71.75
2022-11-23T20:59:14.574Z,72.01
2022-11-23T21:01:41.705Z,71.90
2022-11-23T21:04:09.009Z,71.96
2022-11-23T21:06:39.361Z,71.93
2022-11-23T21:09:08.426Z,72.08
2022-11-23T21:11:36.005Z,72.23
2022-11-23T21:14:05.334Z,72.21
2022-11-23T21:16:44.281Z,71.51
2022-11-23T21:19:12.850Z,72.27
2022-11-23T21:21:40.242Z,72.32
2022-11-23T21:24:07.608Z,72.36
2022-11-23T21:26:35.025Z,72.29
2022-11-23T21:29:02.110Z,72.47
2022-11-23T21:31:29.839Z,72.49
2022-11-23T21:33:57.080Z,72.65
2022-11-23T21:36:24.094Z,72.50
2022-11-23T21:38:51.302Z,72.70
2022-11-23T21:41:18.395Z,72.75
2022-11-23T21:43:45.454Z,72.97
2022-11-23T21:46:12.947Z,72.84
2022-11-23T21:48:40.239Z,73.15
2022-11-23T21:51:10.908Z,73.23
2022-11-23T21:53:38.367Z,73.34
2022-11-23T21:56:11.789Z,73.03
2022-11-23T21:58:39.425Z,73.45
2022-11-23T22:01:06.612Z,73.38
2022-11-23T22:03:57.603Z,73.09
2022-11-23T22:06:24.756Z,73.30
2022-11-23T22:08:53.841Z,73.31
2022-11-23T22:11:23.446Z,73.27
2022-11-23T22:13:55.349Z,72.77
2022-11-23T22:16:27.949Z,73.28
2022-11-23T22:18:56.298Z,73.30
2022-11-23T22:21:28.928Z,73.11
2022-11-23T22:23:56.113Z,73.39
2022-11-23T22:26:23.291Z,73.39
2022-11-23T22:28:51.399Z,73.30
2022-11-23T22:31:19.825Z,72.51
2022-11-23T22:33:47.361Z,73.30
2022-11-23T22:36:15.882Z,73.25
2022-11-23T22:38:43.716Z,73.35
2022-11-23T22:41:13.957Z,73.36
2022-11-23T22:43:42.031Z,73.47
2022-11-23T22:46:12.266Z,73.57
2022-11-23T22:48:41.087Z,73.72
2022-11-23T22:51:10.585Z,73.69
2022-11-23T22:53:43.907Z,73.86
2022-11-23T22:56:16.832Z,73.87
2022-11-23T22:58:45.298Z,74.21
2022-11-23T23:01:14.840Z,74.33
2022-11-23T23:03:42.445Z,74.41
2022-11-23T23:06:21.064Z,74.33
2022-11-23T23:08:53.014Z,74.63
2022-11-23T23:11:20.226Z,74.68
2022-11-23T23:13:47.541Z,74.98
2022-11-23T23:16:14.742Z,74.96
2022-11-23T23:18:42.878Z,74.94
2022-11-23T23:21:15.417Z,74.95
2022-11-23T23:23:44.858Z,75.21
2022-11-23T23:26:12.975Z,75.15
2022-11-23T23:28:40.061Z,74.88
2022-11-23T23:31:09.387Z,75.32
2022-11-23T23:33:37.164Z,75.16
2022-11-23T23:36:08.518Z,75.03
2022-11-23T23:38:36.153Z,75.35
2022-11-23T23:41:04.055Z,75.24
2022-11-23T23:43:31.215Z,75.18
2022-11-23T23:45:59.887Z,75.15
2022-11-23T23:48:35.315Z,74.23
2022-11-23T23:51:13.272Z,74.72
2022-11-23T23:53:40.634Z,74.91
2022-11-23T23:56:13.827Z,74.74
2022-11-23T23:58:41.113Z,74.72
